Time;durP1;ratioP1;P1;durP2;ratioP2;P2;SDS_P1;SDS_P2;PMS_P1;PMS_P2;Temp;Humidity;BMP_temperature;BMP_pressure;BME280_temperature;BME280_humidity;BME280_pressure;Samples;Min_cycle;Max_cycle;Signal;HPM_P1;HPM_P2
2023/01/22 00:02:17;;;;;;;;;;;;;;;-5.33;68.44;101418.41;5066428;28;20338;-73
2023/01/22 00:04:44;;;;;;;;;;;;;;;-5.28;68.44;101418.03;5049027;28;19928;-73
2023/01/22 00:07:12;;;;;;;;;;;;;;;-5.23;68.43;101417.63;5067408;28;19954;-73
2023/01/22 00:09:37;;;;;;;;;;;;;;;-5.23;68.26;101425.63;5065431;28;20143;-73
2023/01/22 00:12:03;;;;;;;;;;;;;;;-5.23;68.41;101425.63;5067355;28;20339;-73
2023/01/22 00:14:31;;;;;;;;;;;;;;;-5.23;68.61;101428.31;5059923;28;19928;-73
2023/01/22 00:16:58;;;;;;;;;;;;;;;-5.23;68.55;101417.63;5047673;28;19939;-69
2023/01/22 00:19:23;;;;;;;;;;;;;;;-5.18;68.73;101420.75;5058601;28;19928;-69
2023/01/22 00:21:50;;;;;;;;;;;;;;;-5.11;68.51;101416.59;5063668;28;19928;-69
2023/01/22 00:24:17;;;;;;;;;;;;;;;-5.10;68.50;101420.09;5067826;28;19934;-68
2023/01/22 00:26:42;;;;;;;;;;;;;;;-5.17;68.63;101412.63;5066333;28;19928;-69
2023/01/22 00:29:08;;;;;;;;;;;;;;;-5.20;68.58;101415.56;5047003;28;19959;-68
2023/01/22 00:31:34;;;;;;;;;;;;;;;-5.19;68.80;101419.06;5048917;28;20439;-69
2023/01/22 00:34:00;;;;;;;;;;;;;;;-5.18;68.88;101416.28;5046875;28;19928;-69
2023/01/22 00:36:26;;;;;;;;;;;;;;;-5.16;68.75;101413.44;5047152;28;20036;-69
2023/01/22 00:38:51;;;;;;;;;;;;;;;-5.20;69.11;101407.56;5045996;28;20431;-69
2023/01/22 00:41:19;;;;;;;;;;;;;;;-5.21;69.32;101408.53;5056963;28;19929;-70
2023/01/22 00:43:45;;;;;;;;;;;;;;;-5.16;69.23;101408.13;5065615;28;19928;-70
2023/01/22 00:46:12;;;;;;;;;;;;;;;-5.15;69.06;101407.13;5067168;28;19928;-69
2023/01/22 00:48:38;;;;;;;;;;;;;;;-5.10;69.30;101404.94;5063192;28;19936;-68
2023/01/22 00:51:04;;;;;;;;;;;;;;;-5.07;69.04;101414.47;5064770;28;19989;-68
2023/01/22 00:53:30;;;;;;;;;;;;;;;-5.09;69.43;101411.97;5064414;28;20658;-69
2023/01/22 00:55:56;;;;;;;;;;;;;;;-5.08;69.42;101411.00;5063738;28;19960;-68
2023/01/22 00:58:24;;;;;;;;;;;;;;;-5.10;69.41;101406.75;5048823;28;19974;-68
2023/01/22 01:00:50;;;;;;;;;;;;;;;-5.11;69.47;101400.59;5047567;28;20039;-69
2023/01/22 01:03:31;;;;;;;;;;;;;;;-5.05;69.64;101408.03;5057837;28;20031;-69
2023/01/22 01:05:58;;;;;;;;;;;;;;;-5.10;69.61;101410.28;5065068;28;19928;-69
2023/01/22 01:08:24;;;;;;;;;;;;;;;-5.16;69.83;101405.44;5031827;28;20380;-69
2023/01/22 01:10:52;;;;;;;;;;;;;;;-5.18;70.07;101405.59;5067031;28;19932;-69
2023/01/22 01:13:18;;;;;;;;;;;;;;;-5.17;70.12;101417.09;5065555;28;20384;-69
2023/01/22 01:15:45;;;;;;;;;;;;;;;-5.16;70.36;101418.78;5067467;28;20280;-70
2023/01/22 01:18:13;;;;;;;;;;;;;;;-5.14;70.33;101414.19;5063421;28;19937;-69
2023/01/22 01:20:38;;;;;;;;;;;;;;;-5.06;70.03;101413.53;5057170;28;19928;-70
2023/01/22 01:23:04;;;;;;;;;;;;;;;-5.00;70.07;101421.81;5064333;28;20273;-69
2023/01/22 01:25:30;;;;;;;;;;;;;;;-4.96;70.03;101425.09;5045389;28;20141;-69
2023/01/22 01:27:57;;;;;;;;;;;;;;;-4.99;70.12;101431.56;5038988;28;19932;-69
2023/01/22 01:30:23;;;;;;;;;;;;;;;-5.00;70.23;101424.50;5044836;28;19935;-69
2023/01/22 01:32:51;;;;;;;;;;;;;;;-5.01;70.15;101424.66;5044658;28;19928;-69
2023/01/22 01:35:18;;;;;;;;;;;;;;;-5.04;70.10;101423.06;5047592;28;19928;-70
2023/01/22 01:37:44;;;;;;;;;;;;;;;-5.07;70.27;101422.50;5066010;28;19932;-69
2023/01/22 01:40:10;;;;;;;;;;;;;;;-5.13;70.44;101415.88;5062220;28;19939;-69
2023/01/22 01:42:38;;;;;;;;;;;;;;;-5.15;70.64;101426.66;5063620;28;19978;-69
2023/01/22 01:45:21;;;;;;;;;;;;;;;-5.13;70.66;101416.72;5048974;28;19928;-69
2023/01/22 01:47:48;;;;;;;;;;;;;;;-5.06;70.73;101425.03;5032858;28;19928;-69
2023/01/22 01:50:16;;;;;;;;;;;;;;;-5.03;70.59;101421.28;5045586;28;19928;-67
2023/01/22 01:52:42;;;;;;;;;;;;;;;-5.00;70.69;101423.66;5065088;28;19935;-68
2023/01/22 01:55:09;;;;;;;;;;;;;;;-4.97;70.71;101439.41;5065251;28;19928;-73
2023/01/22 01:57:35;;;;;;;;;;;;;;;-5.02;70.64;101434.47;5049131;28;19928;-68
2023/01/22 02:00:09;;;;;;;;;;;;;;;-5.06;70.90;101437.53;5064856;28;19998;-68
2023/01/22 02:02:40;;;;;;;;;;;;;;;-5.13;70.90;101429.22;5066973;28;20012;-68
2023/01/22 02:05:07;;;;;;;;;;;;;;;-5.08;71.21;101443.00;5063362;28;20415;-68
2023/01/22 02:07:34;;;;;;;;;;;;;;;-5.30;71.23;101410.19;5065216;28;19979;-69
2023/01/22 02:10:03;;;;;;;;;;;;;;;-5.06;71.34;101435.72;5062470;28;19954;-68
2023/01/22 02:12:30;;;;;;;;;;;;;;;-4.97;71.33;101430.56;5062241;28;19939;-68
2023/01/22 02:14:57;;;;;;;;;;;;;;;-4.99;71.20;101436.88;5062176;28;20300;-69
2023/01/22 02:17:31;;;;;;;;;;;;;;;-5.01;71.25;101432.66;5067084;28;20380;-68
2023/01/22 02:19:57;;;;;;;;;;;;;;;-5.06;71.40;101442.88;5064895;28;19928;-68
2023/01/22 02:22:26;;;;;;;;;;;;;;;-5.07;71.43;101434.03;5064801;28;19929;-68
2023/01/22 02:24:52;;;;;;;;;;;;;;;-5.02;71.38;101436.28;5063810;28;20214;-69
2023/01/22 02:27:18;;;;;;;;;;;;;;;-5.06;71.42;101435.72;5032576;28;19978;-68
2023/01/22 02:29:45;;;;;;;;;;;;;;;-5.04;71.52;101435.59;5065178;28;19936;-73
2023/01/22 02:32:12;;;;;;;;;;;;;;;-5.03;71.78;101430.09;5029955;28;19982;-73
2023/01/22 02:34:37;;;;;;;;;;;;;;;-4.97;71.64;101426.06;5063115;28;19928;-74
2023/01/22 02:37:04;;;;;;;;;;;;;;;-4.96;71.66;101440.25;5061854;28;20036;-73
2023/01/22 02:39:32;;;;;;;;;;;;;;;-4.93;71.72;101445.34;5064902;28;19978;-72
2023/01/22 02:42:01;;;;;;;;;;;;;;;-5.01;71.70;101441.47;5048871;28;20346;-73
2023/01/22 02:44:27;;;;;;;;;;;;;;;-5.03;71.78;101437.28;5065336;28;19935;-72
2023/01/22 02:46:52;;;;;;;;;;;;;;;-5.02;71.94;101437.13;5049451;28;19928;-69
2023/01/22 02:49:18;;;;;;;;;;;;;;;-5.05;71.97;101440.06;5068602;28;19929;-68
2023/01/22 02:51:44;;;;;;;;;;;;;;;-5.02;71.99;101444.31;5069069;28;20374;-68
2023/01/22 02:54:10;;;;;;;;;;;;;;;-5.07;72.19;101450.03;5067146;28;19936;-69
2023/01/22 02:56:37;;;;;;;;;;;;;;;-5.09;72.41;101441.31;5068212;28;19929;-69
2023/01/22 02:59:03;;;;;;;;;;;;;;;-5.09;72.41;101443.97;5070296;28;19928;-69
2023/01/22 03:01:30;;;;;;;;;;;;;;;-5.07;72.37;101436.69;5068054;28;19964;-69
2023/01/22 03:03:57;;;;;;;;;;;;;;;-5.08;72.49;101440.34;5047958;28;19929;-68
2023/01/22 03:06:25;;;;;;;;;;;;;;;-5.06;72.66;101432.22;5047089;28;20411;-68
2023/01/22 03:08:52;;;;;;;;;;;;;;;-5.03;72.73;101437.28;5046727;28;20388;-69
2023/01/22 03:11:18;;;;;;;;;;;;;;;-5.03;72.83;101438.09;5028266;28;19982;-68
2023/01/22 03:21:59;;;;;;;;;;;;;;;-5.10;72.95;101452.09;5062721;28;19929;-73
2023/01/22 03:24:25;;;;;;;;;;;;;;;-5.13;73.10;101453.22;5065453;28;20439;-73
2023/01/22 03:26:51;;;;;;;;;;;;;;;-5.10;73.22;101458.31;5043676;28;20031;-73
2023/01/22 03:29:19;;;;;;;;;;;;;;;-5.08;73.10;101471.50;5029041;28;20043;-73
2023/01/22 03:31:47;;;;;;;;;;;;;;;-5.09;72.96;101461.78;5049817;28;20031;-73
2023/01/22 03:34:13;;;;;;;;;;;;;;;-5.07;73.27;101470.50;5053948;28;19929;-73
2023/01/22 03:36:39;;;;;;;;;;;;;;;-5.04;73.01;101464.94;5074928;28;19932;-74
2023/01/22 03:39:05;;;;;;;;;;;;;;;-5.08;73.21;101464.34;5065915;28;19935;-74
2023/01/22 03:41:31;;;;;;;;;;;;;;;-5.11;73.21;101461.94;5065678;28;19929;-73
2023/01/22 03:44:00;;;;;;;;;;;;;;;-5.10;73.31;101466.31;5066719;28;20042;-74
2023/01/22 03:46:33;;;;;;;;;;;;;;;-5.14;73.44;101456.88;5050674;28;19939;-73
2023/01/22 03:49:00;;;;;;;;;;;;;;;-5.10;73.43;101463.63;5065426;28;20275;-73
2023/01/22 03:51:26;;;;;;;;;;;;;;;-5.07;73.35;101468.69;5057667;28;20022;-73
2023/01/22 03:53:52;;;;;;;;;;;;;;;-5.07;73.46;101467.84;5042495;28;19928;-73
2023/01/22 03:56:19;;;;;;;;;;;;;;;-5.06;73.45;101473.06;5045860;28;19944;-73
2023/01/22 03:58:47;;;;;;;;;;;;;;;-5.07;73.31;101471.38;5065832;28;20035;-73
2023/01/22 04:01:14;;;;;;;;;;;;;;;-5.08;73.45;101476.81;5068068;28;19974;-72
2023/01/22 04:03:42;;;;;;;;;;;;;;;-5.01;73.56;101478.84;5066115;28;19936;-74
2023/01/22 04:06:10;;;;;;;;;;;;;;;-4.96;73.37;101474.94;5064986;28;19933;-74
2023/01/22 04:08:37;;;;;;;;;;;;;;;-4.91;73.53;101468.25;5065030;28;19929;-73
2023/01/22 04:11:04;;;;;;;;;;;;;;;-4.87;73.41;101484.81;5069252;28;20391;-74
2023/01/22 04:13:31;;;;;;;;;;;;;;;-4.87;73.14;101483.00;5048805;28;20038;-73
2023/01/22 04:15:57;;;;;;;;;;;;;;;-4.86;73.29;101478.50;5067707;28;19934;-73
2023/01/22 04:18:51;;;;;;;;;;;;;;;-4.86;73.31;101484.69;5068015;28;20267;-73
2023/01/22 04:21:24;;;;;;;;;;;;;;;-4.87;73.27;101491.03;5066248;28;19932;-74
2023/01/22 04:23:55;;;;;;;;;;;;;;;-4.89;73.24;101490.31;5031927;28;19929;-74
2023/01/22 04:26:21;;;;;;;;;;;;;;;-4.91;73.62;101499.41;5031695;28;20035;-73
2023/01/22 04:28:48;;;;;;;;;;;;;;;-4.93;73.38;101498.69;5067323;28;19935;-73
2023/01/22 04:31:14;;;;;;;;;;;;;;;-4.93;73.77;101507.53;5064699;28;19933;-73
2023/01/22 04:33:47;;;;;;;;;;;;;;;-5.00;73.59;101493.88;5063917;28;19928;-73
2023/01/22 04:36:29;;;;;;;;;;;;;;;-5.01;73.92;101494.84;5066386;28;20386;-74
2023/01/22 04:38:55;;;;;;;;;;;;;;;-5.03;73.86;101491.47;5062500;28;20086;-73
2023/01/22 04:41:21;;;;;;;;;;;;;;;-5.02;74.11;101490.50;5064763;28;19935;-73
2023/01/22 04:43:47;;;;;;;;;;;;;;;-5.07;74.07;101470.50;5064676;28;20364;-73
2023/01/22 04:46:12;;;;;;;;;;;;;;;-4.93;73.98;101488.84;5048027;28;20005;-74
2023/01/22 04:48:38;;;;;;;;;;;;;;;-4.96;74.01;101483.78;5066502;28;19935;-73
2023/01/22 04:51:04;;;;;;;;;;;;;;;-4.98;74.14;101488.41;5064217;28;19928;-73
2023/01/22 04:53:33;;;;;;;;;;;;;;;-4.94;74.34;101489.84;5048249;28;19928;-73
2023/01/22 04:55:59;;;;;;;;;;;;;;;-4.87;74.13;101492.81;5064178;28;19936;-73
2023/01/22 04:58:26;;;;;;;;;;;;;;;-4.86;74.02;101492.72;5063807;28;20030;-73
2023/01/22 05:00:54;;;;;;;;;;;;;;;-4.89;74.02;101500.97;5061495;28;19936;-73
2023/01/22 05:03:21;;;;;;;;;;;;;;;-4.92;74.16;101490.53;5063226;28;20349;-73
2023/01/22 05:05:47;;;;;;;;;;;;;;;-4.89;74.17;101494.78;5048861;28;19978;-73
2023/01/22 05:08:13;;;;;;;;;;;;;;;-4.87;74.21;101498.16;5062616;28;19932;-73
2023/01/22 05:10:40;;;;;;;;;;;;;;;-4.84;74.19;101495.22;5062449;28;19982;-73
2023/01/22 05:13:09;;;;;;;;;;;;;;;-4.81;74.03;101500.31;5060913;28;19928;-73
2023/01/22 05:15:36;;;;;;;;;;;;;;;-4.78;73.81;101508.06;5079020;28;20565;-74
2023/01/22 05:18:07;;;;;;;;;;;;;;;-4.76;74.07;101507.91;5047973;28;19934;-73
2023/01/22 05:20:35;;;;;;;;;;;;;;;-4.77;73.75;101509.75;5048897;28;20022;-73
2023/01/22 05:23:01;;;;;;;;;;;;;;;-4.84;74.04;101513.91;5045502;28;20031;-74
2023/01/22 05:25:28;;;;;;;;;;;;;;;-4.82;74.40;101519.13;5061994;28;20019;-73
2023/01/22 05:27:57;;;;;;;;;;;;;;;-4.78;74.41;101529.41;5024950;28;20054;-69
2023/01/22 05:30:32;;;;;;;;;;;;;;;-4.73;74.25;101526.34;4695548;28;9999911;-69
2023/01/22 05:33:05;;;;;;;;;;;;;;;-4.71;74.16;101533.25;5051634;28;19929;-70
2023/01/22 05:35:31;;;;;;;;;;;;;;;-4.70;74.26;101534.94;5049798;28;19933;-69
2023/01/22 05:37:56;;;;;;;;;;;;;;;-4.68;74.05;101533.94;5044964;28;19952;-69
2023/01/22 05:40:23;;;;;;;;;;;;;;;-4.67;73.95;101543.69;5061377;28;20950;-69
2023/01/22 05:42:48;;;;;;;;;;;;;;;-4.67;73.78;101539.16;5062334;28;20333;-69
2023/01/22 05:45:16;;;;;;;;;;;;;;;-4.65;74.43;101541.72;5049614;28;20465;-70
2023/01/22 05:47:55;;;;;;;;;;;;;;;-4.77;74.24;101528.44;5062703;28;19932;-69
2023/01/22 05:50:35;;;;;;;;;;;;;;;-4.60;74.32;101556.38;5045529;28;19935;-69
2023/01/22 05:53:07;;;;;;;;;;;;;;;-4.54;74.12;101554.13;5065976;28;19928;-69
2023/01/22 05:55:33;;;;;;;;;;;;;;;-4.51;74.15;101557.41;5043142;28;19948;-70
2023/01/22 05:58:00;;;;;;;;;;;;;;;-4.52;74.10;101553.03;5061803;28;19928;-70
2023/01/22 06:00:27;;;;;;;;;;;;;;;-4.59;74.10;101552.72;5063516;28;19929;-70
2023/01/22 06:02:59;;;;;;;;;;;;;;;-4.60;74.35;101551.03;5063243;28;19929;-69
2023/01/22 06:05:26;;;;;;;;;;;;;;;-4.58;74.30;101557.09;5068269;28;19929;-73
2023/01/22 06:07:59;;;;;;;;;;;;;;;-4.59;74.36;101562.53;5067250;28;19928;-69
2023/01/22 06:10:29;;;;;;;;;;;;;;;-4.64;74.37;101570.94;5045591;28;19928;-70
2023/01/22 06:12:55;;;;;;;;;;;;;;;-4.65;74.59;101568.41;5061200;28;20047;-70
2023/01/22 06:15:21;;;;;;;;;;;;;;;-4.64;74.83;101568.28;5061275;28;19933;-70
2023/01/22 06:17:58;;;;;;;;;;;;;;;-4.59;74.57;101573.22;5043161;28;19929;-69
2023/01/22 06:20:25;;;;;;;;;;;;;;;-4.51;74.78;101580.56;5064045;28;20235;-69
2023/01/22 06:22:51;;;;;;;;;;;;;;;-5.41;74.57;101461.72;5069546;28;20026;-69
2023/01/22 06:25:19;;;;;;;;;;;;;;;-4.60;74.94;101593.75;5068943;28;19928;-70
2023/01/22 06:28:01;;;;;;;;;;;;;;;-4.52;74.83;101587.75;5059169;28;20023;-69
2023/01/22 06:30:29;;;;;;;;;;;;;;;-4.45;74.82;101593.38;5056761;28;20330;-70
2023/01/22 06:32:59;;;;;;;;;;;;;;;-4.61;74.77;101567.16;5064939;28;20298;-74
2023/01/22 06:35:25;;;;;;;;;;;;;;;-4.44;74.91;101600.44;5066292;28;20396;-73
2023/01/22 06:37:51;;;;;;;;;;;;;;;-4.36;74.86;101605.97;5070425;28;19928;-73
2023/01/22 06:40:17;;;;;;;;;;;;;;;-4.32;74.92;101606.56;5067103;28;19959;-73
2023/01/22 06:42:45;;;;;;;;;;;;;;;-4.51;74.76;101577.91;5050919;28;19928;-73
2023/01/22 06:45:11;;;;;;;;;;;;;;;-4.30;74.73;101612.59;5049251;28;19938;-73
2023/01/22 06:47:42;;;;;;;;;;;;;;;-4.27;74.90;101621.22;5052917;28;19935;-73
2023/01/22 06:50:10;;;;;;;;;;;;;;;-4.28;75.00;101618.66;5069872;28;19986;-70
2023/01/22 06:52:36;;;;;;;;;;;;;;;-4.31;74.95;101624.28;5068143;28;20046;-69
2023/01/22 06:55:02;;;;;;;;;;;;;;;-4.31;75.17;101635.78;5049554;28;20525;-69
2023/01/22 06:57:29;;;;;;;;;;;;;;;-4.30;75.25;101631.31;5060801;28;19932;-70
2023/01/22 06:59:55;;;;;;;;;;;;;;;-4.30;75.45;101631.31;5051892;28;19928;-70
2023/01/22 07:02:21;;;;;;;;;;;;;;;-4.30;75.49;101625.97;5067646;28;19998;-69
2023/01/22 07:04:47;;;;;;;;;;;;;;;-4.27;75.55;101641.72;5046130;28;19952;-69
2023/01/22 07:07:15;;;;;;;;;;;;;;;-4.25;75.40;101644.28;5047410;28;20024;-70
2023/01/22 07:09:41;;;;;;;;;;;;;;;-4.23;75.55;101643.13;5048730;28;19933;-70
2023/01/22 07:12:06;;;;;;;;;;;;;;;-4.22;75.58;101657.34;5066437;28;20023;-69
2023/01/22 07:14:32;;;;;;;;;;;;;;;-4.19;75.72;101665.09;5069076;28;20052;-73
2023/01/22 07:16:59;;;;;;;;;;;;;;;-4.17;75.56;101664.00;5064429;28;19928;-73
2023/01/22 07:19:25;;;;;;;;;;;;;;;-4.15;75.78;101662.03;5066216;28;19929;-73
2023/01/22 07:21:51;;;;;;;;;;;;;;;-4.11;75.65;101676.00;5049135;28;19928;-73
2023/01/22 07:24:18;;;;;;;;;;;;;;;-4.09;75.95;101675.84;5049729;28;20409;-73
2023/01/22 07:26:45;;;;;;;;;;;;;;;-4.07;75.59;101661.38;5059994;28;20031;-73
2023/01/22 07:29:10;;;;;;;;;;;;;;;-4.03;75.64;101670.00;5067163;28;19943;-70
2023/01/22 07:31:36;;;;;;;;;;;;;;;-4.04;75.91;101663.78;5067711;28;19928;-69
2023/01/22 07:34:02;;;;;;;;;;;;;;;-3.98;75.96;101675.78;5056961;28;19948;-69
2023/01/22 07:36:28;;;;;;;;;;;;;;;-4.01;76.05;101679.56;5066487;28;19928;-70
2023/01/22 07:38:54;;;;;;;;;;;;;;;-3.96;76.07;101681.84;5068021;28;19936;-70
2023/01/22 07:41:22;;;;;;;;;;;;;;;-3.84;76.04;101687.94;5038977;28;19932;-69
2023/01/22 07:43:51;;;;;;;;;;;;;;;-3.83;75.62;101694.97;5062949;28;19928;-69
2023/01/22 07:46:17;;;;;;;;;;;;;;;-3.87;75.71;101691.75;5063460;28;20327;-70
2023/01/22 07:48:44;;;;;;;;;;;;;;;-3.89;75.94;101704.41;5058766;28;19997;-72
2023/01/22 07:51:11;;;;;;;;;;;;;;;-3.84;76.27;101722.69;5065581;28;19939;-73
2023/01/22 07:53:37;;;;;;;;;;;;;;;-3.79;76.26;101712.47;5064342;28;19932;-73
2023/01/22 07:56:04;;;;;;;;;;;;;;;-3.78;76.02;101721.31;5065058;28;20403;-74
2023/01/22 07:58:31;;;;;;;;;;;;;;;-3.77;76.10;101717.66;5045687;28;19929;-73
2023/01/22 08:00:58;;;;;;;;;;;;;;;-3.71;76.35;101726.00;5049325;28;19935;-73
2023/01/22 08:03:23;;;;;;;;;;;;;;;-3.61;76.35;101720.69;5062425;28;19928;-72
2023/01/22 08:05:52;;;;;;;;;;;;;;;-3.57;76.09;101722.13;5064082;28;20519;-72
2023/01/22 08:08:22;;;;;;;;;;;;;;;-3.55;76.09;101724.66;5062857;28;19997;-72
2023/01/22 08:10:48;;;;;;;;;;;;;;;-3.58;76.03;101727.59;5062372;28;19943;-73
2023/01/22 08:13:14;;;;;;;;;;;;;;;-3.54;76.04;101730.88;5065553;28;19928;-70
2023/01/22 08:15:42;;;;;;;;;;;;;;;-3.51;75.91;101736.81;5065582;28;19936;-69
2023/01/22 08:18:08;;;;;;;;;;;;;;;-3.52;76.18;101739.59;5060066;28;19928;-70
2023/01/22 08:20:34;;;;;;;;;;;;;;;-3.48;76.13;101741.00;5059999;28;19967;-69
2023/01/22 08:23:00;;;;;;;;;;;;;;;-3.52;75.98;101736.91;5050101;28;19971;-70
2023/01/22 08:25:26;;;;;;;;;;;;;;;-3.45;76.04;101730.03;5058469;28;20322;-70
2023/01/22 08:27:52;;;;;;;;;;;;;;;-3.43;76.15;101733.44;5062285;28;19939;-70
2023/01/22 08:30:18;;;;;;;;;;;;;;;-3.41;76.02;101731.50;5063334;28;19935;-70
2023/01/22 08:32:45;;;;;;;;;;;;;;;-3.39;76.00;101740.22;5064069;28;19962;-70
2023/01/22 08:35:12;;;;;;;;;;;;;;;-3.35;75.86;101743.47;5035851;28;19964;-69
2023/01/22 08:37:37;;;;;;;;;;;;;;;-3.35;75.61;101746.97;5064170;28;19957;-70
2023/01/22 08:40:04;;;;;;;;;;;;;;;-3.35;75.77;101746.16;5059943;28;20348;-70
2023/01/22 08:42:30;;;;;;;;;;;;;;;-3.34;75.74;101748.69;5061431;28;20097;-70
2023/01/22 08:44:56;;;;;;;;;;;;;;;-3.30;75.78;101746.59;5063152;28;20039;-69
2023/01/22 08:47:21;;;;;;;;;;;;;;;-3.33;75.81;101749.53;5063699;28;20284;-70
2023/01/22 08:49:49;;;;;;;;;;;;;;;-3.33;76.04;101747.69;5063394;28;19928;-70
2023/01/22 08:52:15;;;;;;;;;;;;;;;-3.28;75.77;101755.31;5063575;28;20284;-70
2023/01/22 08:54:41;;;;;;;;;;;;;;;-3.22;75.85;101754.75;5057886;28;20485;-69
2023/01/22 08:57:06;;;;;;;;;;;;;;;-3.20;75.76;101760.84;5059791;28;19928;-71
2023/01/22 08:59:32;;;;;;;;;;;;;;;-3.20;75.81;101757.31;5063619;28;19994;-70
2023/01/22 09:01:58;;;;;;;;;;;;;;;-3.18;75.59;101760.69;5062373;28;19928;-70
2023/01/22 09:04:24;;;;;;;;;;;;;;;-3.18;75.85;101763.38;5061804;28;20446;-70
2023/01/22 09:06:52;;;;;;;;;;;;;;;-3.22;75.57;101762.78;5059239;28;20439;-70
2023/01/22 09:09:18;;;;;;;;;;;;;;;-3.30;75.81;101762.63;5062505;28;19929;-70
2023/01/22 09:11:45;;;;;;;;;;;;;;;-3.27;75.76;101765.03;5062180;28;19934;-70
2023/01/22 09:14:11;;;;;;;;;;;;;;;-3.25;75.88;101763.06;5061997;28;20074;-70
2023/01/22 09:16:37;;;;;;;;;;;;;;;-3.14;75.98;101764.78;5043030;28;19937;-70
2023/01/22 09:19:03;;;;;;;;;;;;;;;-3.11;75.78;101767.22;5061340;28;19928;-70
2023/01/22 09:21:30;;;;;;;;;;;;;;;-3.02;75.72;101770.91;5060772;28;20296;-70
2023/01/22 09:23:57;;;;;;;;;;;;;;;-2.95;75.32;101774.72;5063040;28;20053;-70
2023/01/22 09:26:23;;;;;;;;;;;;;;;-2.94;75.34;101772.91;5062088;28;19951;-73
2023/01/22 09:28:49;;;;;;;;;;;;;;;-3.02;75.19;101777.09;5061576;28;19934;-74
2023/01/22 09:31:16;;;;;;;;;;;;;;;-3.04;75.30;101788.94;5063125;28;19960;-70
2023/01/22 09:33:42;;;;;;;;;;;;;;;-2.97;75.33;101786.53;5062895;28;19939;-74
2023/01/22 09:36:08;;;;;;;;;;;;;;;-2.89;75.15;101786.72;5045573;28;19932;-73
2023/01/22 09:38:34;;;;;;;;;;;;;;;-2.86;75.06;101789.09;5070143;28;19982;-73
2023/01/22 09:41:04;;;;;;;;;;;;;;;-2.77;75.02;101788.28;5042704;28;19928;-73
2023/01/22 09:43:31;;;;;;;;;;;;;;;-2.76;74.51;101790.00;5060561;28;19929;-73
2023/01/22 09:46:00;;;;;;;;;;;;;;;-2.72;74.64;101796.75;5042967;28;20336;-73
2023/01/22 09:48:31;;;;;;;;;;;;;;;-2.71;74.50;101792.25;5060978;28;20580;-73
2023/01/22 09:50:58;;;;;;;;;;;;;;;-2.72;74.32;101791.41;5064376;28;19951;-73
2023/01/22 09:53:24;;;;;;;;;;;;;;;-2.69;74.37;101792.97;5063363;28;20400;-72
2023/01/22 09:55:51;;;;;;;;;;;;;;;-2.69;74.25;101798.31;5059820;28;20038;-73
2023/01/22 09:58:21;;;;;;;;;;;;;;;-2.67;73.98;101798.16;5059154;28;19929;-74
2023/01/22 10:00:48;;;;;;;;;;;;;;;-2.63;73.95;101788.88;5059918;28;19934;-73
2023/01/22 10:03:17;;;;;;;;;;;;;;;-2.52;73.97;101786.06;5040813;28;19929;-73
2023/01/22 10:05:45;;;;;;;;;;;;;;;-2.42;73.73;101792.28;5061271;28;19928;-70
2023/01/22 10:08:14;;;;;;;;;;;;;;;-2.39;73.38;101785.81;5062898;28;19938;-73
2023/01/22 10:10:40;;;;;;;;;;;;;;;-2.39;73.35;101787.63;5041843;28;20030;-73
2023/01/22 10:13:12;;;;;;;;;;;;;;;-2.50;73.23;101788.63;5040826;28;20051;-73
2023/01/22 10:15:39;;;;;;;;;;;;;;;-2.62;73.50;101786.06;5064427;28;20347;-73
2023/01/22 10:18:11;;;;;;;;;;;;;;;-2.63;73.56;101788.88;5064968;28;19982;-73
2023/01/22 10:20:38;;;;;;;;;;;;;;;-2.61;73.56;101784.22;5061294;28;20395;-73
2023/01/22 10:23:11;;;;;;;;;;;;;;;-2.62;73.50;101788.72;5063459;28;19932;-75
2023/01/22 10:25:37;;;;;;;;;;;;;;;-2.66;73.46;101791.81;5058988;28;19929;-70
2023/01/22 10:28:03;;;;;;;;;;;;;;;-2.64;73.43;101790.72;5062722;28;19943;-70
2023/01/22 10:30:29;;;;;;;;;;;;;;;-2.61;73.27;101798.47;5035445;28;19968;-70
2023/01/22 10:33:01;;;;;;;;;;;;;;;-2.61;73.49;101798.47;5058906;28;19994;-70
2023/01/22 10:35:29;;;;;;;;;;;;;;;-2.60;73.19;101796.63;5061516;28;20050;-71
2023/01/22 10:37:55;;;;;;;;;;;;;;;-2.56;73.49;101795.38;5060715;28;19929;-70
2023/01/22 10:40:23;;;;;;;;;;;;;;;-2.52;73.49;101794.09;5063001;28;20457;-70
2023/01/22 10:42:58;;;;;;;;;;;;;;;-2.52;73.24;101787.91;5043460;28;19960;-71
2023/01/22 10:45:25;;;;;;;;;;;;;;;-2.57;73.59;101786.50;5065180;28;19932;-73
2023/01/22 10:48:01;;;;;;;;;;;;;;;-2.53;73.55;101792.41;5024184;28;19955;-73
2023/01/22 10:50:28;;;;;;;;;;;;;;;-2.47;73.25;101789.19;5058959;28;19974;-73
2023/01/22 10:52:56;;;;;;;;;;;;;;;-2.38;73.36;101797.34;5059308;28;20102;-73
2023/01/22 10:55:23;;;;;;;;;;;;;;;-2.42;72.94;101794.97;5054542;28;19940;-73
2023/01/22 10:57:52;;;;;;;;;;;;;;;-2.42;72.92;101786.06;5059611;28;19929;-73
2023/01/22 11:00:20;;;;;;;;;;;;;;;-2.46;73.00;101790.88;5062488;28;19935;-74
2023/01/22 11:02:48;;;;;;;;;;;;;;;-2.47;73.15;101791.88;5066186;28;20391;-74
2023/01/22 11:05:19;;;;;;;;;;;;;;;-2.40;73.02;101793.97;5065147;28;20043;-73
2023/01/22 11:07:48;;;;;;;;;;;;;;;-2.37;72.79;101793.69;5068304;28;20288;-74
2023/01/22 11:10:17;;;;;;;;;;;;;;;-2.33;72.92;101800.47;5067872;28;19982;-73
2023/01/22 11:12:47;;;;;;;;;;;;;;;-2.36;72.65;101801.59;5063871;28;19928;-73
2023/01/22 11:15:18;;;;;;;;;;;;;;;-2.41;73.10;101801.19;4713889;28;10000251;-70
2023/01/22 11:17:47;;;;;;;;;;;;;;;-2.44;73.04;101796.06;5044701;28;19928;-70
2023/01/22 11:20:16;;;;;;;;;;;;;;;-2.39;73.17;101793.84;5064344;28;19935;-71
2023/01/22 11:22:44;;;;;;;;;;;;;;;-2.39;73.22;101795.66;5063091;28;20023;-70
2023/01/22 11:25:14;;;;;;;;;;;;;;;-2.38;73.26;101802.72;5061037;28;20249;-74
2023/01/22 11:27:55;;;;;;;;;;;;;;;-2.32;73.25;101799.50;5065976;28;19928;-72
2023/01/22 11:30:39;;;;;;;;;;;;;;;-2.26;73.09;101798.91;5064857;28;20252;-70
2023/01/22 11:33:10;;;;;;;;;;;;;;;-2.25;73.15;101797.94;5068525;28;20440;-73
2023/01/22 11:35:44;;;;;;;;;;;;;;;-2.25;73.09;101797.94;5030600;28;20407;-74
2023/01/22 11:38:24;;;;;;;;;;;;;;;-2.28;73.02;101798.22;5042881;28;19929;-71
2023/01/22 11:41:03;;;;;;;;;;;;;;;-2.35;73.08;101797.94;5063065;28;19929;-73
2023/01/22 11:43:44;;;;;;;;;;;;;;;-2.34;73.04;101804.13;5060342;28;19982;-70
2023/01/22 11:46:22;;;;;;;;;;;;;;;-2.43;73.28;101805.81;5060042;28;20299;-70
2023/01/22 11:49:00;;;;;;;;;;;;;;;-2.43;73.46;101806.66;5063879;28;19928;-70
2023/01/22 11:51:30;;;;;;;;;;;;;;;-2.45;73.77;101800.59;5041187;28;19935;-73
2023/01/22 11:54:04;;;;;;;;;;;;;;;-2.50;73.81;101794.81;5064972;28;19936;-70
2023/01/22 11:56:46;;;;;;;;;;;;;;;-2.49;73.87;101798.34;5062421;28;19928;-70
2023/01/22 11:59:19;;;;;;;;;;;;;;;-2.42;73.89;101794.09;5063792;28;19971;-73
2023/01/22 12:01:58;;;;;;;;;;;;;;;-2.35;73.70;101794.38;5062648;28;19935;-71
2023/01/22 12:04:34;;;;;;;;;;;;;;;-2.32;73.71;101804.84;5066492;28;19928;-70
2023/01/22 12:07:20;;;;;;;;;;;;;;;-2.24;73.44;101801.47;5066098;28;19928;-73
2023/01/22 12:09:51;;;;;;;;;;;;;;;-2.25;73.57;101805.13;5045574;28;19974;-69
2023/01/22 12:12:29;;;;;;;;;;;;;;;-2.24;73.40;101804.16;5068608;28;19998;-70
2023/01/22 12:15:06;;;;;;;;;;;;;;;-2.42;73.47;101780.69;5065191;28;20363;-70
2023/01/22 12:17:40;;;;;;;;;;;;;;;-2.28;73.64;101803.56;5060691;28;20364;-73
2023/01/22 12:20:19;;;;;;;;;;;;;;;-2.25;73.70;101808.66;5062811;28;20405;-73
2023/01/22 12:22:49;;;;;;;;;;;;;;;-2.23;73.52;101805.84;5063188;28;19928;-74
2023/01/22 12:25:18;;;;;;;;;;;;;;;-2.30;73.67;101809.06;5063299;28;19929;-70
2023/01/22 12:27:48;;;;;;;;;;;;;;;-2.36;73.87;101812.31;5063368;28;19935;-70
2023/01/22 12:30:18;;;;;;;;;;;;;;;-2.39;74.00;101812.59;5063785;28;19934;-71
2023/01/22 12:32:50;;;;;;;;;;;;;;;-2.38;74.27;101810.75;5064536;28;19936;-70
2023/01/22 12:35:20;;;;;;;;;;;;;;;-2.36;74.19;101815.00;5065628;28;19974;-70
2023/01/22 12:37:47;;;;;;;;;;;;;;;-2.35;74.10;101813.16;5061899;28;19929;-69
2023/01/22 12:40:39;;;;;;;;;;;;;;;-2.37;74.25;101809.75;5065582;28;19932;-70
2023/01/22 12:43:07;;;;;;;;;;;;;;;-2.43;74.35;101811.16;4712225;27;9999739;-73
2023/01/22 12:45:38;;;;;;;;;;;;;;;-2.45;74.52;101815.81;5063103;28;19928;-74
2023/01/22 12:48:10;;;;;;;;;;;;;;;-2.50;74.67;101812.72;5047248;28;20002;-73
2023/01/22 12:50:47;;;;;;;;;;;;;;;-2.53;74.74;101821.03;5065684;28;19932;-73